SVA1172 OERK-OEDF
Flight info
| Callsign | SVA1172 |
|---|---|
| Flight time | 0h 37m |
| Altitude | 27000 |
| Route | EGPIN H744 ITUNI N687 MIBRA |
| Aircraft | A20N/M-SDE2E3FGHIRWXY/LB1 |
Departure
| Time | 2026-04-27 10:25 |
|---|---|
| Airport | King Khalid International Airport (OERK) |
Arrival
| Time | 2026-04-27 11:02 |
|---|---|
| Airport | King Fahd International Airport (OEDF) |
| Time | Latitude | Longitude | Altitude | Speed | Heading |
|---|---|---|---|---|---|
| 2026-04-27 09:43 | 24.96597 | 46.69962 | 2040 ft | 0 kts | 240° |
| 2026-04-27 09:48 | 24.96598 | 46.69962 | 2040 ft | 0 kts | 240° |
| 2026-04-27 10:01 | 24.96598 | 46.69963 | 2046 ft | 0 kts | 240° |
| 2026-04-27 10:15 | 24.96606 | 46.69979 | 2030 ft | 4 kts | 239° |
| 2026-04-27 10:15 | 24.96620 | 46.70003 | 2027 ft | 3 kts | 233° |
| 2026-04-27 10:15 | 24.96630 | 46.70015 | 2027 ft | 2 kts | 204° |
| 2026-04-27 10:15 | 24.96641 | 46.70017 | 2029 ft | 2 kts | 163° |
| 2026-04-27 10:16 | 24.96651 | 46.70013 | 2027 ft | 2 kts | 152° |
| 2026-04-27 10:16 | 24.96660 | 46.70007 | 2030 ft | 2 kts | 149° |
| 2026-04-27 10:16 | 24.96661 | 46.70007 | 2030 ft | 0 kts | 149° |
| 2026-04-27 10:19 | 24.96649 | 46.70014 | 2026 ft | 4 kts | 149° |
| 2026-04-27 10:20 | 24.96617 | 46.70036 | 2026 ft | 7 kts | 143° |
| 2026-04-27 10:20 | 24.96587 | 46.70088 | 2029 ft | 9 kts | 110° |
| 2026-04-27 10:20 | 24.96594 | 46.70164 | 2029 ft | 12 kts | 62° |
| 2026-04-27 10:20 | 24.96658 | 46.70196 | 2028 ft | 12 kts | 341° |
| 2026-04-27 10:21 | 24.96739 | 46.70145 | 2029 ft | 14 kts | 330° |
| 2026-04-27 10:21 | 24.96823 | 46.70091 | 2035 ft | 13 kts | 330° |
| 2026-04-27 10:21 | 24.96906 | 46.70107 | 2029 ft | 15 kts | 59° |
| 2026-04-27 10:21 | 24.96958 | 46.70208 | 2031 ft | 16 kts | 59° |
| 2026-04-27 10:22 | 24.97042 | 46.70267 | 2031 ft | 17 kts | 340° |
| 2026-04-27 10:22 | 24.97148 | 46.70201 | 2028 ft | 17 kts | 330° |
| 2026-04-27 10:22 | 24.97247 | 46.70139 | 2032 ft | 18 kts | 330° |
| 2026-04-27 10:22 | 24.97357 | 46.70069 | 2028 ft | 19 kts | 329° |
| 2026-04-27 10:23 | 24.97474 | 46.69994 | 2029 ft | 17 kts | 329° |
| 2026-04-27 10:23 | 24.97559 | 46.69993 | 2030 ft | 13 kts | 57° |
| 2026-04-27 10:23 | 24.97598 | 46.70070 | 2024 ft | 0 kts | 59° |
| 2026-04-27 10:24 | 24.97605 | 46.70082 | 2023 ft | 6 kts | 59° |
| 2026-04-27 10:24 | 24.97641 | 46.70151 | 2027 ft | 15 kts | 60° |
| 2026-04-27 10:24 | 24.97611 | 46.70251 | 2019 ft | 14 kts | 152° |
| 2026-04-27 10:24 | 24.97589 | 46.70267 | 2024 ft | 2 kts | 150° |
| 2026-04-27 10:25 | 24.97530 | 46.70303 | 2021 ft | 40 kts | 150° |
| 2026-04-27 10:25 | 24.97006 | 46.70640 | 2026 ft | 131 kts | 150° |
| 2026-04-27 10:25 | 24.96029 | 46.71264 | 2307 ft | 177 kts | 150° |
| 2026-04-27 10:25 | 24.94973 | 46.71931 | 3411 ft | 175 kts | 152° |
| 2026-04-27 10:26 | 24.93911 | 46.72610 | 4417 ft | 180 kts | 150° |
| 2026-04-27 10:26 | 24.92865 | 46.73471 | 5146 ft | 196 kts | 143° |
| 2026-04-27 10:26 | 24.91758 | 46.74522 | 5522 ft | 223 kts | 141° |
| 2026-04-27 10:26 | 24.90536 | 46.75714 | 6039 ft | 247 kts | 141° |
| 2026-04-27 10:27 | 24.89175 | 46.77015 | 6500 ft | 271 kts | 141° |
| 2026-04-27 10:27 | 24.87950 | 46.78662 | 7206 ft | 286 kts | 119° |
| 2026-04-27 10:27 | 24.87439 | 46.80805 | 7703 ft | 296 kts | 94° |
| 2026-04-27 10:27 | 24.87784 | 46.83069 | 7892 ft | 304 kts | 69° |
| 2026-04-27 10:28 | 24.88915 | 46.84984 | 7963 ft | 304 kts | 47° |
| 2026-04-27 10:28 | 24.90404 | 46.86706 | 8220 ft | 310 kts | 47° |
| 2026-04-27 10:28 | 24.91782 | 46.88563 | 9047 ft | 313 kts | 54° |
| 2026-04-27 10:28 | 24.92957 | 46.90538 | 10081 ft | 313 kts | 59° |
| 2026-04-27 10:29 | 24.94044 | 46.92677 | 10708 ft | 331 kts | 62° |
| 2026-04-27 10:29 | 24.95125 | 46.95022 | 11052 ft | 354 kts | 64° |
| 2026-04-27 10:29 | 24.96233 | 46.97540 | 11568 ft | 370 kts | 64° |
| 2026-04-27 10:29 | 24.97359 | 47.00119 | 12332 ft | 375 kts | 64° |
| 2026-04-27 10:30 | 24.98498 | 47.02720 | 12766 ft | 378 kts | 64° |
| 2026-04-27 10:30 | 24.99645 | 47.05328 | 12933 ft | 379 kts | 64° |
| 2026-04-27 10:30 | 25.00803 | 47.07952 | 12987 ft | 380 kts | 64° |
| 2026-04-27 10:30 | 25.02082 | 47.10498 | 12987 ft | 380 kts | 58° |
| 2026-04-27 10:31 | 25.03470 | 47.12977 | 13008 ft | 381 kts | 58° |
| 2026-04-27 10:31 | 25.04865 | 47.15481 | 13466 ft | 385 kts | 58° |
| 2026-04-27 10:31 | 25.06264 | 47.17999 | 14356 ft | 386 kts | 58° |
| 2026-04-27 10:31 | 25.07676 | 47.20544 | 15091 ft | 392 kts | 58° |
| 2026-04-27 10:32 | 25.09113 | 47.23133 | 15791 ft | 399 kts | 58° |
| 2026-04-27 10:32 | 25.10574 | 47.25766 | 16503 ft | 405 kts | 58° |
| 2026-04-27 10:32 | 25.12053 | 47.28434 | 17175 ft | 411 kts | 58° |
| 2026-04-27 10:32 | 25.13557 | 47.31148 | 17806 ft | 418 kts | 58° |
| 2026-04-27 10:33 | 25.15085 | 47.33906 | 18429 ft | 424 kts | 58° |
| 2026-04-27 10:33 | 25.16628 | 47.36696 | 19042 ft | 428 kts | 58° |
| 2026-04-27 10:33 | 25.18185 | 47.39513 | 19621 ft | 433 kts | 58° |
| 2026-04-27 10:33 | 25.19756 | 47.42335 | 20204 ft | 438 kts | 56° |
| 2026-04-27 10:34 | 25.21599 | 47.45019 | 20798 ft | 441 kts | 48° |
| 2026-04-27 10:34 | 25.23593 | 47.47610 | 21395 ft | 445 kts | 48° |
| 2026-04-27 10:34 | 25.25607 | 47.50241 | 21981 ft | 449 kts | 48° |
| 2026-04-27 10:34 | 25.27633 | 47.52894 | 22542 ft | 455 kts | 48° |
| 2026-04-27 10:35 | 25.29692 | 47.55595 | 23049 ft | 461 kts | 49° |
| 2026-04-27 10:35 | 25.31768 | 47.58321 | 23611 ft | 465 kts | 49° |
| 2026-04-27 10:35 | 25.33864 | 47.61073 | 24015 ft | 472 kts | 49° |
| 2026-04-27 10:35 | 25.35986 | 47.63863 | 24455 ft | 476 kts | 48° |
| 2026-04-27 10:36 | 25.38124 | 47.66677 | 24960 ft | 479 kts | 48° |
| 2026-04-27 10:36 | 25.40141 | 47.69580 | 25418 ft | 484 kts | 55° |
| 2026-04-27 10:36 | 25.41835 | 47.72823 | 25880 ft | 489 kts | 64° |
| 2026-04-27 10:36 | 25.43238 | 47.76266 | 26303 ft | 493 kts | 66° |
| 2026-04-27 10:37 | 25.44644 | 47.79742 | 26698 ft | 497 kts | 66° |
| 2026-04-27 10:37 | 25.45600 | 47.82096 | 26836 ft | 500 kts | 66° |
| 2026-04-27 10:37 | 25.47033 | 47.85619 | 26908 ft | 501 kts | 65° |
| 2026-04-27 10:37 | 25.48444 | 47.89085 | 26900 ft | 500 kts | 65° |
| 2026-04-27 10:38 | 25.49873 | 47.92599 | 26905 ft | 500 kts | 66° |
| 2026-04-27 10:38 | 25.51302 | 47.96117 | 26902 ft | 500 kts | 66° |
| 2026-04-27 10:38 | 25.52727 | 47.99628 | 26905 ft | 500 kts | 66° |
| 2026-04-27 10:38 | 25.54152 | 48.03141 | 26905 ft | 501 kts | 65° |
| 2026-04-27 10:39 | 25.55584 | 48.06673 | 26895 ft | 502 kts | 65° |
| 2026-04-27 10:39 | 25.57011 | 48.10194 | 26903 ft | 501 kts | 65° |
| 2026-04-27 10:39 | 25.58438 | 48.13719 | 26896 ft | 502 kts | 65° |
| 2026-04-27 10:39 | 25.59867 | 48.17254 | 26893 ft | 502 kts | 65° |
| 2026-04-27 10:40 | 25.61290 | 48.20775 | 26905 ft | 502 kts | 65° |
| 2026-04-27 10:40 | 25.62718 | 48.24314 | 26905 ft | 502 kts | 65° |
| 2026-04-27 10:40 | 25.64144 | 48.27851 | 26894 ft | 502 kts | 65° |
| 2026-04-27 10:40 | 25.65552 | 48.31345 | 26902 ft | 502 kts | 65° |
| 2026-04-27 10:41 | 25.66979 | 48.34885 | 26903 ft | 502 kts | 65° |
| 2026-04-27 10:41 | 25.68438 | 48.38402 | 26889 ft | 501 kts | 61° |
| 2026-04-27 10:41 | 25.70220 | 48.41721 | 26891 ft | 500 kts | 55° |
| 2026-04-27 10:41 | 25.72095 | 48.44970 | 26889 ft | 499 kts | 55° |
| 2026-04-27 10:42 | 25.73957 | 48.48215 | 26892 ft | 497 kts | 55° |
| 2026-04-27 10:42 | 25.75812 | 48.51454 | 26883 ft | 498 kts | 55° |
| 2026-04-27 10:42 | 25.77669 | 48.54701 | 26890 ft | 498 kts | 55° |
| 2026-04-27 10:42 | 25.79525 | 48.57947 | 26879 ft | 498 kts | 55° |
| 2026-04-27 10:43 | 25.81378 | 48.61190 | 26886 ft | 498 kts | 55° |
| 2026-04-27 10:43 | 25.83238 | 48.64446 | 26886 ft | 498 kts | 55° |
| 2026-04-27 10:43 | 25.85086 | 48.67685 | 26679 ft | 495 kts | 55° |
| 2026-04-27 10:43 | 25.86929 | 48.70918 | 26120 ft | 495 kts | 55° |
| 2026-04-27 10:44 | 25.88755 | 48.74121 | 25282 ft | 497 kts | 55° |
| 2026-04-27 10:44 | 25.90606 | 48.77367 | 24336 ft | 497 kts | 55° |
| 2026-04-27 10:44 | 25.92440 | 48.80592 | 23721 ft | 490 kts | 55° |
| 2026-04-27 10:44 | 25.94314 | 48.83721 | 23037 ft | 483 kts | 50° |
| 2026-04-27 10:45 | 25.96487 | 48.86496 | 22521 ft | 470 kts | 41° |
| 2026-04-27 10:45 | 25.98840 | 48.88955 | 21972 ft | 460 kts | 39° |
| 2026-04-27 10:45 | 26.01160 | 48.91361 | 21461 ft | 452 kts | 40° |
| 2026-04-27 10:45 | 26.03435 | 48.93731 | 20904 ft | 445 kts | 40° |
| 2026-04-27 10:46 | 26.05672 | 48.96061 | 20484 ft | 435 kts | 41° |
| 2026-04-27 10:46 | 26.07868 | 48.98350 | 19944 ft | 429 kts | 41° |
| 2026-04-27 10:46 | 26.10042 | 49.00613 | 19339 ft | 426 kts | 42° |
| 2026-04-27 10:46 | 26.12215 | 49.02875 | 18588 ft | 428 kts | 43° |
| 2026-04-27 10:47 | 26.14349 | 49.05098 | 17998 ft | 423 kts | 43° |
| 2026-04-27 10:47 | 26.16476 | 49.07319 | 17533 ft | 414 kts | 43° |
| 2026-04-27 10:47 | 26.18551 | 49.09496 | 17076 ft | 406 kts | 41° |
| 2026-04-27 10:47 | 26.20592 | 49.11642 | 16536 ft | 401 kts | 41° |
| 2026-04-27 10:48 | 26.22612 | 49.13761 | 16013 ft | 396 kts | 41° |
| 2026-04-27 10:48 | 26.24612 | 49.15855 | 15491 ft | 392 kts | 40° |
| 2026-04-27 10:48 | 26.26597 | 49.17933 | 14964 ft | 389 kts | 41° |
| 2026-04-27 10:48 | 26.28566 | 49.19995 | 14434 ft | 386 kts | 41° |
| 2026-04-27 10:49 | 26.30497 | 49.22018 | 13874 ft | 385 kts | 41° |
| 2026-04-27 10:49 | 26.32441 | 49.24057 | 13373 ft | 381 kts | 41° |
| 2026-04-27 10:49 | 26.34361 | 49.26070 | 13086 ft | 382 kts | 41° |
| 2026-04-27 10:49 | 26.36321 | 49.28125 | 13004 ft | 387 kts | 41° |
| 2026-04-27 10:50 | 26.38267 | 49.30166 | 12905 ft | 378 kts | 41° |
| 2026-04-27 10:50 | 26.40136 | 49.32127 | 12737 ft | 359 kts | 41° |
| 2026-04-27 10:50 | 26.41904 | 49.33985 | 12546 ft | 339 kts | 41° |
| 2026-04-27 10:50 | 26.43575 | 49.35741 | 12362 ft | 321 kts | 40° |
| 2026-04-27 10:51 | 26.45154 | 49.37401 | 12199 ft | 302 kts | 40° |
| 2026-04-27 10:51 | 26.46644 | 49.38966 | 11989 ft | 288 kts | 40° |
| 2026-04-27 10:51 | 26.48090 | 49.40483 | 11565 ft | 284 kts | 40° |
| 2026-04-27 10:51 | 26.49521 | 49.41984 | 11108 ft | 281 kts | 40° |
| 2026-04-27 10:52 | 26.50941 | 49.43472 | 10654 ft | 279 kts | 40° |
| 2026-04-27 10:52 | 26.52346 | 49.44949 | 10204 ft | 276 kts | 40° |
| 2026-04-27 10:52 | 26.53735 | 49.46412 | 9805 ft | 272 kts | 40° |
| 2026-04-27 10:52 | 26.55125 | 49.47877 | 9164 ft | 277 kts | 41° |
| 2026-04-27 10:53 | 26.56524 | 49.49349 | 8459 ft | 284 kts | 41° |
| 2026-04-27 10:53 | 26.59450 | 49.52433 | 7067 ft | 293 kts | 42° |
| 2026-04-27 10:53 | 26.60942 | 49.54011 | 6391 ft | 296 kts | 41° |
| 2026-04-27 10:54 | 26.62449 | 49.55602 | 5688 ft | 298 kts | 42° |
| 2026-04-27 10:54 | 26.64012 | 49.57134 | 4996 ft | 299 kts | 37° |
| 2026-04-27 10:54 | 26.65602 | 49.58640 | 4340 ft | 299 kts | 42° |
| 2026-04-27 10:54 | 26.67025 | 49.60240 | 4122 ft | 281 kts | 47° |
| 2026-04-27 10:55 | 26.68247 | 49.61854 | 3986 ft | 263 kts | 52° |
| 2026-04-27 10:55 | 26.69284 | 49.63464 | 3849 ft | 247 kts | 57° |
| 2026-04-27 10:55 | 26.70153 | 49.65048 | 3730 ft | 231 kts | 62° |
| 2026-04-27 10:55 | 26.70861 | 49.66583 | 3576 ft | 220 kts | 66° |
| 2026-04-27 10:56 | 26.71462 | 49.68127 | 3427 ft | 213 kts | 69° |
| 2026-04-27 10:56 | 26.71968 | 49.69672 | 3222 ft | 211 kts | 74° |
| 2026-04-27 10:56 | 26.71993 | 49.71253 | 3014 ft | 201 kts | 114° |
| 2026-04-27 10:56 | 26.71258 | 49.72517 | 2974 ft | 189 kts | 130° |
| 2026-04-27 10:57 | 26.70364 | 49.73629 | 2975 ft | 198 kts | 133° |
| 2026-04-27 10:57 | 26.69265 | 49.74550 | 2976 ft | 199 kts | 158° |
| 2026-04-27 10:57 | 26.67912 | 49.74812 | 2972 ft | 200 kts | 174° |
| 2026-04-27 10:57 | 26.66520 | 49.75004 | 2970 ft | 201 kts | 170° |
| 2026-04-27 10:58 | 26.65141 | 49.75335 | 2975 ft | 202 kts | 166° |
| 2026-04-27 10:58 | 26.63794 | 49.75738 | 2934 ft | 201 kts | 164° |
| 2026-04-27 10:58 | 26.62470 | 49.76147 | 2725 ft | 193 kts | 164° |
| 2026-04-27 10:58 | 26.61197 | 49.76543 | 2467 ft | 186 kts | 163° |
| 2026-04-27 10:59 | 26.59998 | 49.76914 | 2242 ft | 173 kts | 162° |
| 2026-04-27 10:59 | 26.58904 | 49.77251 | 2023 ft | 152 kts | 162° |
| 2026-04-27 10:59 | 26.57955 | 49.77550 | 1845 ft | 135 kts | 161° |
| 2026-04-27 11:00 | 26.56207 | 49.78094 | 1511 ft | 130 kts | 162° |
| 2026-04-27 11:00 | 26.55343 | 49.78361 | 1346 ft | 127 kts | 162° |
| 2026-04-27 11:00 | 26.54483 | 49.78628 | 1193 ft | 127 kts | 161° |
| 2026-04-27 11:00 | 26.53616 | 49.78898 | 1023 ft | 131 kts | 160° |
| 2026-04-27 11:01 | 26.52734 | 49.79171 | 868 ft | 132 kts | 159° |
| 2026-04-27 11:01 | 26.51873 | 49.79438 | 708 ft | 124 kts | 159° |
| 2026-04-27 11:01 | 26.51041 | 49.79698 | 562 ft | 128 kts | 160° |
| 2026-04-27 11:01 | 26.50186 | 49.79961 | 382 ft | 125 kts | 160° |
| 2026-04-27 11:02 | 26.49343 | 49.80219 | 200 ft | 127 kts | 161° |
| 2026-04-27 11:02 | 26.48483 | 49.80484 | 87 ft | 126 kts | 162° |
| 2026-04-27 11:02 | 26.47747 | 49.80717 | 67 ft | 84 kts | 165° |
| 2026-04-27 11:02 | 26.47366 | 49.80833 | 66 ft | 41 kts | 163° |
| 2026-04-27 11:03 | 26.47126 | 49.80918 | 67 ft | 14 kts | 141° |
| 2026-04-27 11:03 | 26.47150 | 49.80962 | 73 ft | 8 kts | 5° |
| 2026-04-27 11:03 | 26.47217 | 49.80977 | 68 ft | 11 kts | 12° |
| 2026-04-27 11:03 | 26.47267 | 49.80989 | 73 ft | 9 kts | 13° |
| 2026-04-27 11:04 | 26.47342 | 49.81009 | 73 ft | 11 kts | 13° |
| 2026-04-27 11:04 | 26.47423 | 49.81016 | 66 ft | 14 kts | 355° |
| 2026-04-27 11:04 | 26.47532 | 49.80990 | 65 ft | 17 kts | 339° |
| 2026-04-27 11:04 | 26.47622 | 49.80961 | 66 ft | 13 kts | 347° |
| 2026-04-27 11:05 | 26.47721 | 49.80933 | 68 ft | 15 kts | 345° |
| 2026-04-27 11:05 | 26.47819 | 49.80901 | 69 ft | 12 kts | 343° |
| 2026-04-27 11:05 | 26.47913 | 49.80872 | 70 ft | 14 kts | 338° |
| 2026-04-27 11:05 | 26.47942 | 49.80792 | 75 ft | 13 kts | 251° |
| 2026-04-27 11:06 | 26.47921 | 49.80704 | 73 ft | 13 kts | 255° |
| 2026-04-27 11:06 | 26.47893 | 49.80587 | 70 ft | 17 kts | 255° |
| 2026-04-27 11:06 | 26.47877 | 49.80532 | 68 ft | 4 kts | 251° |
| 2026-04-27 11:06 | 26.47858 | 49.80457 | 71 ft | 14 kts | 256° |
| 2026-04-27 11:07 | 26.47829 | 49.80335 | 70 ft | 17 kts | 254° |
| 2026-04-27 11:07 | 26.47795 | 49.80196 | 67 ft | 19 kts | 254° |
| 2026-04-27 11:07 | 26.47760 | 49.80056 | 65 ft | 18 kts | 254° |
| 2026-04-27 11:07 | 26.47732 | 49.79945 | 65 ft | 16 kts | 255° |
| 2026-04-27 11:08 | 26.47703 | 49.79831 | 70 ft | 16 kts | 254° |
| 2026-04-27 11:08 | 26.47668 | 49.79695 | 71 ft | 19 kts | 255° |
| 2026-04-27 11:08 | 26.47636 | 49.79562 | 73 ft | 15 kts | 254° |
| 2026-04-27 11:08 | 26.47602 | 49.79433 | 66 ft | 19 kts | 254° |
| 2026-04-27 11:09 | 26.47572 | 49.79314 | 71 ft | 14 kts | 254° |
| 2026-04-27 11:09 | 26.47543 | 49.79188 | 66 ft | 19 kts | 257° |
| 2026-04-27 11:09 | 26.47460 | 49.79119 | 69 ft | 18 kts | 163° |
| 2026-04-27 11:09 | 26.47352 | 49.79160 | 73 ft | 14 kts | 141° |
| 2026-04-27 11:10 | 26.47368 | 49.79234 | 67 ft | 12 kts | 65° |
| 2026-04-27 11:10 | 26.47375 | 49.79250 | 68 ft | 0 kts | 65° |